sensor_id;sensor_type;location;lat;lon;timestamp;pressure;altitude;pressure_sealevel;temperature;humidity
7524;BME280;3803;51.666;7.630;2023-04-22T00:00:18;100301.56;;;11.58;68.22
7524;BME280;3803;51.666;7.630;2023-04-22T00:00:39;100298.88;;;11.53;67.98
7524;BME280;3803;51.666;7.630;2023-04-22T00:01:00;100309.41;;;11.58;68.09
7524;BME280;3803;51.666;7.630;2023-04-22T00:01:21;100297.09;;;11.49;68.15
7524;BME280;3803;51.666;7.630;2023-04-22T00:01:43;100293.56;;;11.48;68.25
7524;BME280;3803;51.666;7.630;2023-04-22T00:02:04;100284.84;;;11.46;68.08
7524;BME280;3803;51.666;7.630;2023-04-22T00:02:25;100298.03;;;11.52;68.19
7524;BME280;3803;51.666;7.630;2023-04-22T00:02:46;100285.72;;;11.47;68.01
7524;BME280;3803;51.666;7.630;2023-04-22T00:03:07;100302.44;;;11.57;68.33
7524;BME280;3803;51.666;7.630;2023-04-22T00:03:27;100306.75;;;11.56;68.21
7524;BME280;3803;51.666;7.630;2023-04-22T00:03:48;100284.81;;;11.45;68.11
7524;BME280;3803;51.666;7.630;2023-04-22T00:04:09;100291.88;;;11.50;68.04
7524;BME280;3803;51.666;7.630;2023-04-22T00:04:30;100306.75;;;11.56;67.96
7524;BME280;3803;51.666;7.630;2023-04-22T00:04:51;100294.41;;;11.46;68.16
7524;BME280;3803;51.666;7.630;2023-04-22T00:05:12;100302.28;;;11.47;68.13
7524;BME280;3803;51.666;7.630;2023-04-22T00:05:33;100304.03;;;11.48;68.34
7524;BME280;3803;51.666;7.630;2023-04-22T00:05:54;100299.66;;;11.47;68.02
7524;BME280;3803;51.666;7.630;2023-04-22T00:06:15;100296.13;;;11.44;68.21
7524;BME280;3803;51.666;7.630;2023-04-22T00:06:36;100307.47;;;11.46;68.09
7524;BME280;3803;51.666;7.630;2023-04-22T00:06:56;100307.47;;;11.46;68.27
7524;BME280;3803;51.666;7.630;2023-04-22T00:07:17;100317.13;;;11.50;67.93
7524;BME280;3803;51.666;7.630;2023-04-22T00:07:39;100322.34;;;11.51;68.23
7524;BME280;3803;51.666;7.630;2023-04-22T00:08:00;100302.13;;;11.38;68.38
7524;BME280;3803;51.666;7.630;2023-04-22T00:08:21;100306.50;;;11.39;68.23
7524;BME280;3803;51.666;7.630;2023-04-22T00:08:41;100312.66;;;11.44;68.06
7524;BME280;3803;51.666;7.630;2023-04-22T00:09:02;100301.28;;;11.39;68.09
7524;BME280;3803;51.666;7.630;2023-04-22T00:09:23;100298.53;;;11.33;67.99
7524;BME280;3803;51.666;7.630;2023-04-22T00:09:43;100303.81;;;11.36;67.98
7524;BME280;3803;51.666;7.630;2023-04-22T00:10:06;100316.09;;;11.40;68.44
7524;BME280;3803;51.666;7.630;2023-04-22T00:10:27;100305.53;;;11.34;68.26
7524;BME280;3803;51.666;7.630;2023-04-22T00:10:48;100313.41;;;11.35;68.29
7524;BME280;3803;51.666;7.630;2023-04-22T00:11:09;100302.84;;;11.29;67.97
7524;BME280;3803;51.666;7.630;2023-04-22T00:11:30;100309.00;;;11.33;68.68
7524;BME280;3803;51.666;7.630;2023-04-22T00:11:51;100320.41;;;11.40;68.61
7524;BME280;3803;51.666;7.630;2023-04-22T00:12:11;100308.16;;;11.35;68.53
7524;BME280;3803;51.666;7.630;2023-04-22T00:12:32;100318.72;;;11.42;68.53
7524;BME280;3803;51.666;7.630;2023-04-22T00:12:54;100321.34;;;11.43;68.31
7524;BME280;3803;51.666;7.630;2023-04-22T00:13:14;100316.97;;;11.42;68.18
7524;BME280;3803;51.666;7.630;2023-04-22T00:13:35;100315.19;;;11.40;68.01
7524;BME280;3803;51.666;7.630;2023-04-22T00:13:56;100313.47;;;11.40;68.32
7524;BME280;3803;51.666;7.630;2023-04-22T00:14:17;100310.88;;;11.40;68.08
7524;BME280;3803;51.666;7.630;2023-04-22T00:14:38;100317.84;;;11.41;68.15
7524;BME280;3803;51.666;7.630;2023-04-22T00:14:59;100312.63;;;11.41;68.08
7524;BME280;3803;51.666;7.630;2023-04-22T00:15:19;100309.03;;;11.36;67.96
7524;BME280;3803;51.666;7.630;2023-04-22T00:15:40;100298.16;;;11.09;68.34
7524;BME280;3803;51.666;7.630;2023-04-22T00:16:04;100301.47;;;11.01;68.81
7524;BME280;3803;51.666;7.630;2023-04-22T00:16:26;100319.72;;;11.01;69.05
7524;BME280;3803;51.666;7.630;2023-04-22T00:16:47;100316.94;;;10.91;69.48
7524;BME280;3803;51.666;7.630;2023-04-22T00:17:07;100318.66;;;10.89;69.41
7524;BME280;3803;51.666;7.630;2023-04-22T00:17:28;100300.09;;;10.75;69.52
7524;BME280;3803;51.666;7.630;2023-04-22T00:17:48;100316.75;;;10.80;69.99
7524;BME280;3803;51.666;7.630;2023-04-22T00:18:09;100301.72;;;10.68;69.64
7524;BME280;3803;51.666;7.630;2023-04-22T00:18:34;100304.69;;;10.87;69.91
7524;BME280;3803;51.666;7.630;2023-04-22T00:18:55;100302.16;;;10.92;69.61
7524;BME280;3803;51.666;7.630;2023-04-22T00:19:16;100301.41;;;10.97;69.21
7524;BME280;3803;51.666;7.630;2023-04-22T00:19:36;100299.63;;;10.96;69.00
7524;BME280;3803;51.666;7.630;2023-04-22T00:19:57;100295.25;;;10.95;68.89
7524;BME280;3803;51.666;7.630;2023-04-22T00:20:19;100287.44;;;10.95;68.78
7524;BME280;3803;51.666;7.630;2023-04-22T00:20:41;100307.66;;;11.07;68.76
7524;BME280;3803;51.666;7.630;2023-04-22T00:21:03;100309.34;;;11.02;68.92
7524;BME280;3803;51.666;7.630;2023-04-22T00:21:25;100305.06;;;11.06;68.75
7524;BME280;3803;51.666;7.630;2023-04-22T00:21:46;100298.91;;;11.04;68.91
7524;BME280;3803;51.666;7.630;2023-04-22T00:22:07;100297.22;;;11.06;68.69
7524;BME280;3803;51.666;7.630;2023-04-22T00:22:27;100307.69;;;11.09;69.10
7524;BME280;3803;51.666;7.630;2023-04-22T00:22:48;100315.66;;;11.15;69.12
7524;BME280;3803;51.666;7.630;2023-04-22T00:23:10;100296.34;;;11.07;68.86
7524;BME280;3803;51.666;7.630;2023-04-22T00:23:30;100296.41;;;11.10;68.80
7524;BME280;3803;51.666;7.630;2023-04-22T00:23:51;100302.56;;;11.14;68.88
7524;BME280;3803;51.666;7.630;2023-04-22T00:24:12;100293.78;;;11.10;68.57
7524;BME280;3803;51.666;7.630;2023-04-22T00:24:32;100286.78;;;11.06;68.53
7524;BME280;3803;51.666;7.630;2023-04-22T00:24:53;100294.66;;;11.09;68.27
7524;BME280;3803;51.666;7.630;2023-04-22T00:25:14;100311.28;;;11.16;68.44
7524;BME280;3803;51.666;7.630;2023-04-22T00:25:35;100292.00;;;11.06;68.31
7524;BME280;3803;51.666;7.630;2023-04-22T00:25:56;100292.78;;;11.02;68.48
7524;BME280;3803;51.666;7.630;2023-04-22T00:26:16;100294.59;;;11.06;68.44
7524;BME280;3803;51.666;7.630;2023-04-22T00:26:37;100305.06;;;11.06;68.65
7524;BME280;3803;51.666;7.630;2023-04-22T00:26:58;100302.44;;;11.06;68.49
7524;BME280;3803;51.666;7.630;2023-04-22T00:27:18;100307.63;;;11.04;68.37
7524;BME280;3803;51.666;7.630;2023-04-22T00:27:39;100291.00;;;11.01;68.29
7524;BME280;3803;51.666;7.630;2023-04-22T00:27:59;100314.47;;;10.99;68.24
7524;BME280;3803;51.666;7.630;2023-04-22T00:28:20;100301.47;;;11.01;68.20
7524;BME280;3803;51.666;7.630;2023-04-22T00:28:41;100311.03;;;11.02;68.31
7524;BME280;3803;51.666;7.630;2023-04-22T00:29:02;100294.47;;;11.00;68.32
7524;BME280;3803;51.666;7.630;2023-04-22T00:29:24;100298.81;;;10.99;68.61
7524;BME280;3803;51.666;7.630;2023-04-22T00:29:44;100302.31;;;11.00;68.63
7524;BME280;3803;51.666;7.630;2023-04-22T00:30:05;100310.19;;;11.03;68.53
7524;BME280;3803;51.666;7.630;2023-04-22T00:30:26;100303.25;;;11.03;68.42
7524;BME280;3803;51.666;7.630;2023-04-22T00:30:47;100319.00;;;11.08;68.50
7524;BME280;3803;51.666;7.630;2023-04-22T00:31:07;100305.94;;;11.08;68.21
7524;BME280;3803;51.666;7.630;2023-04-22T00:31:28;100302.28;;;10.98;68.43
7524;BME280;3803;51.666;7.630;2023-04-22T00:31:49;100313.81;;;11.11;68.30
7524;BME280;3803;51.666;7.630;2023-04-22T00:32:10;100295.47;;;11.06;68.22
7524;BME280;3803;51.666;7.630;2023-04-22T00:32:30;100297.13;;;11.01;68.29
7524;BME280;3803;51.666;7.630;2023-04-22T00:32:52;100295.34;;;11.00;68.42
7524;BME280;3803;51.666;7.630;2023-04-22T00:33:12;100292.78;;;11.02;67.99
7524;BME280;3803;51.666;7.630;2023-04-22T00:33:33;100307.59;;;11.03;68.35
7524;BME280;3803;51.666;7.630;2023-04-22T00:33:53;100295.22;;;10.92;68.32
7524;BME280;3803;51.666;7.630;2023-04-22T00:34:14;100295.22;;;10.92;68.32
7524;BME280;3803;51.666;7.630;2023-04-22T00:34:37;100307.38;;;10.92;68.46
7524;BME280;3803;51.666;7.630;2023-04-22T00:34:57;100296.13;;;10.94;68.26
7524;BME280;3803;51.666;7.630;2023-04-22T00:35:18;100304.94;;;11.00;68.56
7524;BME280;3803;51.666;7.630;2023-04-22T00:35:38;100289.13;;;10.93;68.35
7524;BME280;3803;51.666;7.630;2023-04-22T00:35:59;100299.69;;;11.00;68.30
7524;BME280;3803;51.666;7.630;2023-04-22T00:36:20;100287.44;;;10.95;68.34
7524;BME280;3803;51.666;7.630;2023-04-22T00:36:40;100288.28;;;10.94;68.08
7524;BME280;3803;51.666;7.630;2023-04-22T00:37:01;100297.13;;;11.03;68.32
7524;BME280;3803;51.666;7.630;2023-04-22T00:37:22;100298.06;;;11.06;68.20
7524;BME280;3803;51.666;7.630;2023-04-22T00:37:43;100294.59;;;11.06;68.10
7524;BME280;3803;51.666;7.630;2023-04-22T00:38:04;100299.81;;;11.06;68.18
7524;BME280;3803;51.666;7.630;2023-04-22T00:38:25;100288.41;;;11.01;67.84
7524;BME280;3803;51.666;7.630;2023-04-22T00:38:48;100300.69;;;11.06;67.71
7524;BME280;3803;51.666;7.630;2023-04-22T00:39:09;100287.50;;;10.99;67.81
7524;BME280;3803;51.666;7.630;2023-04-22T00:39:30;100313.66;;;11.02;68.04
7524;BME280;3803;51.666;7.630;2023-04-22T00:39:51;100279.50;;;10.89;67.97
7524;BME280;3803;51.666;7.630;2023-04-22T00:40:11;100303.91;;;10.93;68.06
7524;BME280;3803;51.666;7.630;2023-04-22T00:40:32;100285.50;;;10.85;67.98
7524;BME280;3803;51.666;7.630;2023-04-22T00:40:53;100281.91;;;10.80;68.09
7524;BME280;3803;51.666;7.630;2023-04-22T00:41:14;100288.06;;;10.82;68.22
7524;BME280;3803;51.666;7.630;2023-04-22T00:41:34;100296.84;;;10.86;68.01
7524;BME280;3803;51.666;7.630;2023-04-22T00:41:55;100303.00;;;10.89;67.92
7524;BME280;3803;51.666;7.630;2023-04-22T00:42:16;100289.75;;;10.80;68.18
7524;BME280;3803;51.666;7.630;2023-04-22T00:42:38;100299.47;;;10.87;68.39
7524;BME280;3803;51.666;7.630;2023-04-22T00:43:00;100301.22;;;10.88;68.22
7524;BME280;3803;51.666;7.630;2023-04-22T00:43:22;100287.13;;;10.78;68.18
7524;BME280;3803;51.666;7.630;2023-04-22T00:43:43;100295.13;;;10.88;68.52
7524;BME280;3803;51.666;7.630;2023-04-22T00:44:06;100283.66;;;10.79;68.38
7524;BME280;3803;51.666;7.630;2023-04-22T00:44:28;100295.94;;;10.85;68.17
7524;BME280;3803;51.666;7.630;2023-04-22T00:44:50;100296.84;;;10.87;67.86
7524;BME280;3803;51.666;7.630;2023-04-22T00:45:14;100295.03;;;10.83;68.10
7524;BME280;3803;51.666;7.630;2023-04-22T00:45:36;100294.03;;;10.75;68.10
7524;BME280;3803;51.666;7.630;2023-04-22T00:45:57;100285.34;;;10.76;68.13
7524;BME280;3803;51.666;7.630;2023-04-22T00:46:18;100275.66;;;10.70;68.13
7524;BME280;3803;51.666;7.630;2023-04-22T00:46:40;100292.31;;;10.77;68.21
7524;BME280;3803;51.666;7.630;2023-04-22T00:47:01;100292.34;;;10.80;68.25
7524;BME280;3803;51.666;7.630;2023-04-22T00:47:21;100294.03;;;10.75;68.36
7524;BME280;3803;51.666;7.630;2023-04-22T00:47:46;100297.41;;;10.71;68.66
7524;BME280;3803;51.666;7.630;2023-04-22T00:48:08;100294.91;;;10.77;68.41
7524;BME280;3803;51.666;7.630;2023-04-22T00:48:38;100291.34;;;10.72;68.66
7524;BME280;3803;51.666;7.630;2023-04-22T00:48:59;100279.94;;;10.66;68.68
7524;BME280;3803;51.666;7.630;2023-04-22T00:49:20;100294.91;;;10.77;68.50
7524;BME280;3803;51.666;7.630;2023-04-22T00:49:42;100292.19;;;10.71;68.63
7524;BME280;3803;51.666;7.630;2023-04-22T00:50:03;100294.88;;;10.74;68.59
7524;BME280;3803;51.666;7.630;2023-04-22T00:50:24;100288.72;;;10.72;68.55
7524;BME280;3803;51.666;7.630;2023-04-22T00:50:45;100296.63;;;10.75;68.48
7524;BME280;3803;51.666;7.630;2023-04-22T00:51:06;100290.47;;;10.73;68.63
7524;BME280;3803;51.666;7.630;2023-04-22T00:51:27;100308.09;;;10.83;68.45
7524;BME280;3803;51.666;7.630;2023-04-22T00:51:47;100297.56;;;10.80;68.48
7524;BME280;3803;51.666;7.630;2023-04-22T00:52:08;100292.19;;;10.71;68.40
7524;BME280;3803;51.666;7.630;2023-04-22T00:52:28;100306.34;;;10.82;68.56
7524;BME280;3803;51.666;7.630;2023-04-22T00:52:49;100296.63;;;10.76;68.33
7524;BME280;3803;51.666;7.630;2023-04-22T00:53:10;100292.31;;;10.77;68.48
7524;BME280;3803;51.666;7.630;2023-04-22T00:53:31;100286.09;;;10.72;68.34
7524;BME280;3803;51.666;7.630;2023-04-22T00:53:51;100290.47;;;10.73;68.43
7524;BME280;3803;51.666;7.630;2023-04-22T00:54:12;100285.22;;;10.69;68.42
7524;BME280;3803;51.666;7.630;2023-04-22T00:54:34;100299.28;;;10.78;68.42
7524;BME280;3803;51.666;7.630;2023-04-22T00:54:55;100288.63;;;10.67;68.60
7524;BME280;3803;51.666;7.630;2023-04-22T00:55:15;100302.38;;;10.58;68.83
7524;BME280;3803;51.666;7.630;2023-04-22T00:55:36;100300.56;;;10.54;69.15
7524;BME280;3803;51.666;7.630;2023-04-22T00:55:58;100301.38;;;10.51;69.37
7524;BME280;3803;51.666;7.630;2023-04-22T00:56:19;100306.44;;;10.45;69.69
7524;BME280;3803;51.666;7.630;2023-04-22T00:56:41;100300.31;;;10.41;69.64
7524;BME280;3803;51.666;7.630;2023-04-22T00:57:02;100298.63;;;10.44;69.87
7524;BME280;3803;51.666;7.630;2023-04-22T00:57:25;100292.38;;;10.37;69.72
7524;BME280;3803;51.666;7.630;2023-04-22T00:57:48;100299.47;;;10.43;70.01
7524;BME280;3803;51.666;7.630;2023-04-22T00:58:10;100298.44;;;10.36;69.85
7524;BME280;3803;51.666;7.630;2023-04-22T00:58:31;100299.31;;;10.36;69.87
7524;BME280;3803;51.666;7.630;2023-04-22T00:58:53;100285.25;;;10.28;69.91
7524;BME280;3803;51.666;7.630;2023-04-22T00:59:13;100288.72;;;10.28;69.87
7524;BME280;3803;51.666;7.630;2023-04-22T00:59:34;100290.56;;;10.33;69.80
7524;BME280;3803;51.666;7.630;2023-04-22T00:59:55;100280.78;;;10.24;69.99
7524;BME280;3803;51.666;7.630;2023-04-22T01:00:16;100282.59;;;10.26;69.75
7524;BME280;3803;51.666;7.630;2023-04-22T01:00:39;100287.00;;;10.29;69.79
7524;BME280;3803;51.666;7.630;2023-04-22T01:00:59;100280.88;;;10.27;69.85
7524;BME280;3803;51.666;7.630;2023-04-22T01:01:20;100274.59;;;10.20;69.69
7524;BME280;3803;51.666;7.630;2023-04-22T01:01:43;100281.69;;;10.24;69.99
7524;BME280;3803;51.666;7.630;2023-04-22T01:02:04;100280.75;;;10.22;69.73
7524;BME280;3803;51.666;7.630;2023-04-22T01:02:24;100299.16;;;10.28;69.97
7524;BME280;3803;51.666;7.630;2023-04-22T01:02:46;100301.75;;;10.28;69.61
7524;BME280;3803;51.666;7.630;2023-04-22T01:03:07;100289.41;;;10.21;69.68
7524;BME280;3803;51.666;7.630;2023-04-22T01:03:28;100299.91;;;10.23;69.93
7524;BME280;3803;51.666;7.630;2023-04-22T01:03:50;100287.63;;;10.19;70.04
7524;BME280;3803;51.666;7.630;2023-04-22T01:04:11;100276.97;;;10.09;70.06
7524;BME280;3803;51.666;7.630;2023-04-22T01:04:33;100286.50;;;10.07;70.19
7524;BME280;3803;51.666;7.630;2023-04-22T01:04:54;100291.84;;;10.13;70.29
7524;BME280;3803;51.666;7.630;2023-04-22T01:05:15;100278.63;;;10.04;70.48
7524;BME280;3803;51.666;7.630;2023-04-22T01:05:36;100280.31;;;10.04;70.30
7524;BME280;3803;51.666;7.630;2023-04-22T01:05:56;100275.16;;;10.05;70.49
7524;BME280;3803;51.666;7.630;2023-04-22T01:06:18;100275.09;;;10.02;70.41
7524;BME280;3803;51.666;7.630;2023-04-22T01:06:42;100278.72;;;10.09;70.35
7524;BME280;3803;51.666;7.630;2023-04-22T01:07:03;100288.28;;;10.10;70.21
7524;BME280;3803;51.666;7.630;2023-04-22T01:07:24;100275.16;;;10.05;70.45
7524;BME280;3803;51.666;7.630;2023-04-22T01:07:45;100283.13;;;10.11;70.45
7524;BME280;3803;51.666;7.630;2023-04-22T01:08:06;100267.28;;;10.02;70.41
7524;BME280;3803;51.666;7.630;2023-04-22T01:08:27;100294.50;;;10.17;70.24
7524;BME280;3803;51.666;7.630;2023-04-22T01:08:51;100278.78;;;10.12;70.45
7524;BME280;3803;51.666;7.630;2023-04-22T01:09:12;100275.31;;;10.13;70.35
7524;BME280;3803;51.666;7.630;2023-04-22T01:09:33;100278.00;;;10.16;70.27
7524;BME280;3803;51.666;7.630;2023-04-22T01:09:54;100279.81;;;10.19;70.43
7524;BME280;3803;51.666;7.630;2023-04-22T01:10:17;100283.25;;;10.18;70.72
7524;BME280;3803;51.666;7.630;2023-04-22T01:10:38;100263.94;;;10.08;70.54
7524;BME280;3803;51.666;7.630;2023-04-22T01:11:01;100272.75;;;10.14;70.39
7524;BME280;3803;51.666;7.630;2023-04-22T01:11:22;100268.38;;;10.13;70.50
7524;BME280;3803;51.666;7.630;2023-04-22T01:11:43;100265.81;;;10.15;70.46
7524;BME280;3803;51.666;7.630;2023-04-22T01:12:04;100267.56;;;10.16;70.45
7524;BME280;3803;51.666;7.630;2023-04-22T01:12:25;100267.50;;;10.13;70.53
7524;BME280;3803;51.666;7.630;2023-04-22T01:12:46;100275.50;;;10.21;70.18
7524;BME280;3803;51.666;7.630;2023-04-22T01:13:06;100285.19;;;10.26;70.39
7524;BME280;3803;51.666;7.630;2023-04-22T01:13:27;100278.16;;;10.22;70.26
7524;BME280;3803;51.666;7.630;2023-04-22T01:13:50;100275.56;;;10.24;70.28
7524;BME280;3803;51.666;7.630;2023-04-22T01:14:11;100284.44;;;10.32;70.12
7524;BME280;3803;51.666;7.630;2023-04-22T01:14:33;100273.00;;;10.25;70.15
7524;BME280;3803;51.666;7.630;2023-04-22T01:14:54;100272.13;;;10.25;70.10
7524;BME280;3803;51.666;7.630;2023-04-22T01:15:15;100288.81;;;10.32;70.35
7524;BME280;3803;51.666;7.630;2023-04-22T01:15:36;100286.19;;;10.33;70.53
7524;BME280;3803;51.666;7.630;2023-04-22T01:15:57;100284.44;;;10.32;70.17
7524;BME280;3803;51.666;7.630;2023-04-22T01:16:20;100281.69;;;10.24;70.32
7524;BME280;3803;51.666;7.630;2023-04-22T01:16:42;100280.72;;;10.21;70.51
7524;BME280;3803;51.666;7.630;2023-04-22T01:17:04;100282.56;;;10.25;70.65
7524;BME280;3803;51.666;7.630;2023-04-22T01:17:25;100276.44;;;10.23;70.38
7524;BME280;3803;51.666;7.630;2023-04-22T01:17:47;100290.59;;;10.34;70.47
7524;BME280;3803;51.666;7.630;2023-04-22T01:18:07;100272.03;;;10.22;70.51
7524;BME280;3803;51.666;7.630;2023-04-22T01:18:28;100279.13;;;10.26;70.62
7524;BME280;3803;51.666;7.630;2023-04-22T01:18:49;100270.28;;;10.21;70.68
7524;BME280;3803;51.666;7.630;2023-04-22T01:19:11;100283.44;;;10.25;70.69
7524;BME280;3803;51.666;7.630;2023-04-22T01:19:31;100287.91;;;10.31;70.40
7524;BME280;3803;51.666;7.630;2023-04-22T01:20:04;100272.03;;;10.22;70.44
7524;BME280;3803;51.666;7.630;2023-04-22T01:20:26;100270.28;;;10.21;70.50
7524;BME280;3803;51.666;7.630;2023-04-22T01:20:48;100279.19;;;10.29;70.59
7524;BME280;3803;51.666;7.630;2023-04-22T01:21:11;100280.94;;;10.30;70.69
7524;BME280;3803;51.666;7.630;2023-04-22T01:21:34;100278.28;;;10.27;70.36
7524;BME280;3803;51.666;7.630;2023-04-22T01:21:54;100279.94;;;10.25;70.72
7524;BME280;3803;51.666;7.630;2023-04-22T01:22:15;100273.91;;;10.26;70.53
7524;BME280;3803;51.666;7.630;2023-04-22T01:22:40;100286.19;;;10.33;70.61
7524;BME280;3803;51.666;7.630;2023-04-22T01:23:02;100287.91;;;10.31;70.64
7524;BME280;3803;51.666;7.630;2023-04-22T01:23:29;100286.97;;;10.27;70.50
7524;BME280;3803;51.666;7.630;2023-04-22T01:23:50;100279.94;;;10.23;70.64
7524;BME280;3803;51.666;7.630;2023-04-22T01:24:11;100286.16;;;10.30;70.50
7524;BME280;3803;51.666;7.630;2023-04-22T01:24:32;100281.75;;;10.27;70.51
7524;BME280;3803;51.666;7.630;2023-04-22T01:24:53;100282.69;;;10.31;70.51
7524;BME280;3803;51.666;7.630;2023-04-22T01:25:14;100292.16;;;10.26;70.55
7524;BME280;3803;51.666;7.630;2023-04-22T01:25:35;100284.03;;;10.13;70.65
7524;BME280;3803;51.666;7.630;2023-04-22T01:25:56;100278.91;;;10.18;70.86
7524;BME280;3803;51.666;7.630;2023-04-22T01:26:17;100276.44;;;10.23;70.81
7524;BME280;3803;51.666;7.630;2023-04-22T01:26:38;100289.66;;;10.32;71.04
7524;BME280;3803;51.666;7.630;2023-04-22T01:26:58;100276.53;;;10.27;70.59
7524;BME280;3803;51.666;7.630;2023-04-22T01:27:19;100297.56;;;10.35;70.53
7524;BME280;3803;51.666;7.630;2023-04-22T01:27:40;100291.50;;;10.36;70.70
7524;BME280;3803;51.666;7.630;2023-04-22T01:28:01;100286.28;;;10.36;70.39
7524;BME280;3803;51.666;7.630;2023-04-22T01:28:22;100277.41;;;10.28;70.51
7524;BME280;3803;51.666;7.630;2023-04-22T01:28:43;100305.44;;;10.38;70.59
7524;BME280;3803;51.666;7.630;2023-04-22T01:29:04;100302.03;;;10.41;70.52
7524;BME280;3803;51.666;7.630;2023-04-22T01:29:25;100291.41;;;10.33;70.42
7524;BME280;3803;51.666;7.630;2023-04-22T01:29:46;100295.91;;;10.39;70.61
7524;BME280;3803;51.666;7.630;2023-04-22T01:30:08;100309.03;;;10.44;70.39
7524;BME280;3803;51.666;7.630;2023-04-22T01:30:29;100302.03;;;10.41;70.39
7524;BME280;3803;51.666;7.630;2023-04-22T01:30:50;100300.31;;;10.41;70.27
7524;BME280;3803;51.666;7.630;2023-04-22T01:31:11;100296.78;;;10.39;70.65
7524;BME280;3803;51.666;7.630;2023-04-22T01:31:32;100285.34;;;10.33;70.58
7524;BME280;3803;51.666;7.630;2023-04-22T01:31:53;100287.94;;;10.33;70.45
7524;BME280;3803;51.666;7.630;2023-04-22T01:32:15;100280.91;;;10.28;70.44
7524;BME280;3803;51.666;7.630;2023-04-22T01:32:35;100303.72;;;10.39;70.53
7524;BME280;3803;51.666;7.630;2023-04-22T01:32:57;100290.50;;;10.31;70.38
7524;BME280;3803;51.666;7.630;2023-04-22T01:33:18;100287.91;;;10.31;70.61
7524;BME280;3803;51.666;7.630;2023-04-22T01:33:39;100294.03;;;10.32;70.64
7524;BME280;3803;51.666;7.630;2023-04-22T01:34:00;100293.06;;;10.28;70.53
7524;BME280;3803;51.666;7.630;2023-04-22T01:34:21;100279.03;;;10.23;70.50
7524;BME280;3803;51.666;7.630;2023-04-22T01:34:42;100286.91;;;10.24;70.52
7524;BME280;3803;51.666;7.630;2023-04-22T01:35:02;100286.94;;;10.26;70.75
7524;BME280;3803;51.666;7.630;2023-04-22T01:35:23;100297.34;;;10.24;70.80
7524;BME280;3803;51.666;7.630;2023-04-22T01:35:44;100292.13;;;10.24;70.68
7524;BME280;3803;51.666;7.630;2023-04-22T01:36:05;100275.50;;;10.21;70.54
7524;BME280;3803;51.666;7.630;2023-04-22T01:36:26;100294.88;;;10.31;70.50
7524;BME280;3803;51.666;7.630;2023-04-22T01:36:48;100295.69;;;10.28;70.42
7524;BME280;3803;51.666;7.630;2023-04-22T01:37:09;100297.47;;;10.31;70.51
7524;BME280;3803;51.666;7.630;2023-04-22T01:37:30;100290.38;;;10.25;70.87
7524;BME280;3803;51.666;7.630;2023-04-22T01:37:50;100292.19;;;10.27;70.67
7524;BME280;3803;51.666;7.630;2023-04-22T01:38:12;100288.72;;;10.28;70.47
7524;BME280;3803;51.666;7.630;2023-04-22T01:38:33;100298.34;;;10.31;70.62
7524;BME280;3803;51.666;7.630;2023-04-22T01:38:54;100291.31;;;10.27;70.72
7524;BME280;3803;51.666;7.630;2023-04-22T01:39:15;100278.06;;;10.19;70.72
7524;BME280;3803;51.666;7.630;2023-04-22T01:39:36;100298.31;;;10.30;70.91
7524;BME280;3803;51.666;7.630;2023-04-22T01:39:57;100289.59;;;10.29;70.37
7524;BME280;3803;51.666;7.630;2023-04-22T01:40:19;100280.72;;;10.21;70.67
7524;BME280;3803;51.666;7.630;2023-04-22T01:40:42;100285.06;;;10.22;70.64
7524;BME280;3803;51.666;7.630;2023-04-22T01:41:03;100301.81;;;10.30;70.69
7524;BME280;3803;51.666;7.630;2023-04-22T01:41:24;100289.47;;;10.23;70.76
7524;BME280;3803;51.666;7.630;2023-04-22T01:41:45;100307.97;;;10.34;70.64
7524;BME280;3803;51.666;7.630;2023-04-22T01:42:07;100295.59;;;10.25;70.82
7524;BME280;3803;51.666;7.630;2023-04-22T01:42:27;100302.69;;;10.31;70.69
7524;BME280;3803;51.666;7.630;2023-04-22T01:42:48;100286.00;;;10.24;70.70
7524;BME280;3803;51.666;7.630;2023-04-22T01:43:10;100298.19;;;10.25;70.54
7524;BME280;3803;51.666;7.630;2023-04-22T01:43:30;100298.97;;;10.21;70.93
7524;BME280;3803;51.666;7.630;2023-04-22T01:43:52;100289.47;;;10.23;70.74
7524;BME280;3803;51.666;7.630;2023-04-22T01:44:13;100304.50;;;10.35;70.81
7524;BME280;3803;51.666;7.630;2023-04-22T01:44:34;100298.34;;;10.31;70.76
7524;BME280;3803;51.666;7.630;2023-04-22T01:44:55;100296.63;;;10.33;70.75
7524;BME280;3803;51.666;7.630;2023-04-22T01:45:16;100291.41;;;10.32;70.73
7524;BME280;3803;51.666;7.630;2023-04-22T01:45:36;100291.38;;;10.30;70.63
7524;BME280;3803;51.666;7.630;2023-04-22T01:45:59;100299.38;;;10.39;70.54
7524;BME280;3803;51.666;7.630;2023-04-22T01:46:20;100301.97;;;10.38;70.43
7524;BME280;3803;51.666;7.630;2023-04-22T01:46:41;100282.56;;;10.25;70.43
7524;BME280;3803;51.666;7.630;2023-04-22T01:47:01;100293.97;;;10.30;70.52
7524;BME280;3803;51.666;7.630;2023-04-22T01:47:22;100301.09;;;10.37;70.57
7524;BME280;3803;51.666;7.630;2023-04-22T01:47:43;100291.41;;;10.32;70.52
7524;BME280;3803;51.666;7.630;2023-04-22T01:48:04;100285.34;;;10.33;70.47
7524;BME280;3803;51.666;7.630;2023-04-22T01:48:26;100296.78;;;10.39;70.32
7524;BME280;3803;51.666;7.630;2023-04-22T01:48:46;100296.72;;;10.36;70.43
7524;BME280;3803;51.666;7.630;2023-04-22T01:49:10;100294.97;;;10.35;70.41
7524;BME280;3803;51.666;7.630;2023-04-22T01:49:31;100297.56;;;10.35;70.50
7524;BME280;3803;51.666;7.630;2023-04-22T01:49:52;100283.50;;;10.28;70.41
7524;BME280;3803;51.666;7.630;2023-04-22T01:50:13;100297.53;;;10.34;70.32
7524;BME280;3803;51.666;7.630;2023-04-22T01:50:34;100284.34;;;10.27;70.35
7524;BME280;3803;51.666;7.630;2023-04-22T01:50:54;100289.59;;;10.29;70.40
7524;BME280;3803;51.666;7.630;2023-04-22T01:51:16;100278.28;;;10.28;70.45
7524;BME280;3803;51.666;7.630;2023-04-22T01:51:38;100289.75;;;10.35;70.40
7524;BME280;3803;51.666;7.630;2023-04-22T01:51:58;100281.81;;;10.31;70.29
7524;BME280;3803;51.666;7.630;2023-04-22T01:52:19;100277.41;;;10.28;70.46
7524;BME280;3803;51.666;7.630;2023-04-22T01:52:40;100285.31;;;10.31;70.56
7524;BME280;3803;51.666;7.630;2023-04-22T01:53:00;100296.72;;;10.36;70.46
7524;BME280;3803;51.666;7.630;2023-04-22T01:53:21;100291.47;;;10.35;70.38
7524;BME280;3803;51.666;7.630;2023-04-22T01:53:42;100283.59;;;10.33;70.37
7524;BME280;3803;51.666;7.630;2023-04-22T01:54:04;100302.94;;;10.43;70.24